sensor_id;sensor_type;location;lat;lon;timestamp;P1;durP1;ratioP1;P2;durP2;ratioP2
23888;SDS011;12125;40.102;18.326;2022-11-18T00:01:14;26.25;;;23.63;;
23888;SDS011;12125;40.102;18.326;2022-11-18T00:03:42;28.30;;;25.38;;
23888;SDS011;12125;40.102;18.326;2022-11-18T00:06:10;27.23;;;24.45;;
23888;SDS011;12125;40.102;18.326;2022-11-18T00:08:37;27.70;;;24.75;;
23888;SDS011;12125;40.102;18.326;2022-11-18T00:11:05;28.20;;;25.30;;
23888;SDS011;12125;40.102;18.326;2022-11-18T00:13:33;27.17;;;24.45;;
23888;SDS011;12125;40.102;18.326;2022-11-18T00:16:21;26.98;;;23.00;;
23888;SDS011;12125;40.102;18.326;2022-11-18T00:18:49;26.13;;;23.50;;
23888;SDS011;12125;40.102;18.326;2022-11-18T00:21:16;26.95;;;24.25;;
23888;SDS011;12125;40.102;18.326;2022-11-18T00:23:44;26.95;;;24.10;;
23888;SDS011;12125;40.102;18.326;2022-11-18T00:26:11;28.52;;;25.63;;
23888;SDS011;12125;40.102;18.326;2022-11-18T00:28:39;25.92;;;23.30;;
23888;SDS011;12125;40.102;18.326;2022-11-18T00:31:07;25.80;;;23.13;;
23888;SDS011;12125;40.102;18.326;2022-11-18T00:33:33;25.75;;;23.13;;
23888;SDS011;12125;40.102;18.326;2022-11-18T00:36:02;26.63;;;23.90;;
23888;SDS011;12125;40.102;18.326;2022-11-18T00:38:28;26.60;;;24.00;;
23888;SDS011;12125;40.102;18.326;2022-11-18T00:41:00;27.50;;;24.80;;
23888;SDS011;12125;40.102;18.326;2022-11-18T00:43:28;28.90;;;25.90;;
23888;SDS011;12125;40.102;18.326;2022-11-18T00:45:55;24.35;;;21.95;;
23888;SDS011;12125;40.102;18.326;2022-11-18T00:48:22;24.65;;;22.23;;
23888;SDS011;12125;40.102;18.326;2022-11-18T00:50:50;26.50;;;23.70;;
23888;SDS011;12125;40.102;18.326;2022-11-18T00:53:16;25.48;;;22.85;;
23888;SDS011;12125;40.102;18.326;2022-11-18T00:55:44;24.23;;;21.73;;
23888;SDS011;12125;40.102;18.326;2022-11-18T00:58:11;26.23;;;23.50;;
23888;SDS011;12125;40.102;18.326;2022-11-18T01:00:45;26.77;;;23.73;;
23888;SDS011;12125;40.102;18.326;2022-11-18T01:03:13;28.00;;;24.63;;
23888;SDS011;12125;40.102;18.326;2022-11-18T01:05:40;23.65;;;21.27;;
23888;SDS011;12125;40.102;18.326;2022-11-18T01:08:08;24.98;;;22.45;;
23888;SDS011;12125;40.102;18.326;2022-11-18T01:10:35;24.92;;;22.38;;
23888;SDS011;12125;40.102;18.326;2022-11-18T01:13:02;23.75;;;21.25;;
23888;SDS011;12125;40.102;18.326;2022-11-18T01:15:51;24.65;;;22.20;;
23888;SDS011;12125;40.102;18.326;2022-11-18T01:18:19;24.77;;;22.10;;
23888;SDS011;12125;40.102;18.326;2022-11-18T01:20:46;22.67;;;20.42;;
23888;SDS011;12125;40.102;18.326;2022-11-18T01:23:14;26.75;;;24.10;;
23888;SDS011;12125;40.102;18.326;2022-11-18T01:25:42;24.95;;;22.52;;
23888;SDS011;12125;40.102;18.326;2022-11-18T01:28:09;24.40;;;21.92;;
23888;SDS011;12125;40.102;18.326;2022-11-18T01:30:37;21.00;;;19.08;;
23888;SDS011;12125;40.102;18.326;2022-11-18T01:33:04;20.70;;;18.75;;
23888;SDS011;12125;40.102;18.326;2022-11-18T01:35:36;21.13;;;18.90;;
23888;SDS011;12125;40.102;18.326;2022-11-18T01:38:03;21.73;;;19.58;;
23888;SDS011;12125;40.102;18.326;2022-11-18T01:40:30;22.20;;;19.85;;
23888;SDS011;12125;40.102;18.326;2022-11-18T01:42:57;22.48;;;20.48;;
23888;SDS011;12125;40.102;18.326;2022-11-18T01:45:34;22.92;;;20.73;;
23888;SDS011;12125;40.102;18.326;2022-11-18T01:50:56;21.67;;;19.58;;
23888;SDS011;12125;40.102;18.326;2022-11-18T01:53:25;21.10;;;19.02;;
23888;SDS011;12125;40.102;18.326;2022-11-18T01:55:52;22.13;;;19.90;;
23888;SDS011;12125;40.102;18.326;2022-11-18T01:58:28;21.25;;;19.15;;
23888;SDS011;12125;40.102;18.326;2022-11-18T02:00:56;22.92;;;20.73;;
23888;SDS011;12125;40.102;18.326;2022-11-18T02:03:23;22.13;;;19.90;;
23888;SDS011;12125;40.102;18.326;2022-11-18T02:05:50;29.60;;;20.27;;
23888;SDS011;12125;40.102;18.326;2022-11-18T02:08:17;20.83;;;18.67;;
23888;SDS011;12125;40.102;18.326;2022-11-18T02:10:45;21.13;;;18.92;;
23888;SDS011;12125;40.102;18.326;2022-11-18T02:13:11;42.05;;;19.02;;
23888;SDS011;12125;40.102;18.326;2022-11-18T02:15:44;19.15;;;17.05;;
23888;SDS011;12125;40.102;18.326;2022-11-18T02:31:33;17.98;;;16.10;;
23888;SDS011;12125;40.102;18.326;2022-11-18T02:36:38;17.27;;;15.57;;
23888;SDS011;12125;40.102;18.326;2022-11-18T02:39:07;16.90;;;15.27;;
23888;SDS011;12125;40.102;18.326;2022-11-18T02:41:34;17.40;;;15.70;;
23888;SDS011;12125;40.102;18.326;2022-11-18T02:44:06;16.10;;;14.63;;
23888;SDS011;12125;40.102;18.326;2022-11-18T02:49:01;16.85;;;15.20;;
23888;SDS011;12125;40.102;18.326;2022-11-18T02:51:28;18.67;;;16.80;;
23888;SDS011;12125;40.102;18.326;2022-11-18T02:53:58;18.20;;;16.23;;
23888;SDS011;12125;40.102;18.326;2022-11-18T02:56:26;20.65;;;15.93;;
23888;SDS011;12125;40.102;18.326;2022-11-18T02:58:52;18.67;;;16.85;;
23888;SDS011;12125;40.102;18.326;2022-11-18T03:01:20;18.45;;;14.73;;
23888;SDS011;12125;40.102;18.326;2022-11-18T03:03:48;17.58;;;15.68;;
23888;SDS011;12125;40.102;18.326;2022-11-18T03:08:46;15.82;;;14.32;;
23888;SDS011;12125;40.102;18.326;2022-11-18T03:11:14;15.88;;;14.35;;
23888;SDS011;12125;40.102;18.326;2022-11-18T03:13:45;15.93;;;14.32;;
23888;SDS011;12125;40.102;18.326;2022-11-18T03:16:16;15.85;;;14.43;;
23888;SDS011;12125;40.102;18.326;2022-11-18T03:21:19;14.73;;;13.40;;
23888;SDS011;12125;40.102;18.326;2022-11-18T03:23:56;13.75;;;12.45;;
23888;SDS011;12125;40.102;18.326;2022-11-18T03:26:28;15.38;;;13.88;;
23888;SDS011;12125;40.102;18.326;2022-11-18T03:29:05;13.68;;;12.27;;
23888;SDS011;12125;40.102;18.326;2022-11-18T03:31:42;14.07;;;12.57;;
23888;SDS011;12125;40.102;18.326;2022-11-18T03:34:16;13.55;;;12.25;;
23888;SDS011;12125;40.102;18.326;2022-11-18T03:36:46;13.18;;;11.88;;
23888;SDS011;12125;40.102;18.326;2022-11-18T03:39:13;14.02;;;12.52;;
23888;SDS011;12125;40.102;18.326;2022-11-18T03:41:44;15.60;;;11.20;;
23888;SDS011;12125;40.102;18.326;2022-11-18T03:44:12;13.05;;;11.85;;
23888;SDS011;12125;40.102;18.326;2022-11-18T03:46:43;12.77;;;11.40;;
23888;SDS011;12125;40.102;18.326;2022-11-18T03:49:11;13.45;;;11.55;;
23888;SDS011;12125;40.102;18.326;2022-11-18T03:51:47;12.80;;;11.60;;
23888;SDS011;12125;40.102;18.326;2022-11-18T03:54:22;12.65;;;11.45;;
23888;SDS011;12125;40.102;18.326;2022-11-18T03:57:09;14.05;;;11.90;;
23888;SDS011;12125;40.102;18.326;2022-11-18T03:59:42;13.45;;;12.07;;
23888;SDS011;12125;40.102;18.326;2022-11-18T04:04:37;12.43;;;11.23;;
23888;SDS011;12125;40.102;18.326;2022-11-18T04:07:38;11.60;;;10.32;;
23888;SDS011;12125;40.102;18.326;2022-11-18T04:10:02;10.68;;;9.63;;
23888;SDS011;12125;40.102;18.326;2022-11-18T04:12:32;11.05;;;9.95;;
23888;SDS011;12125;40.102;18.326;2022-11-18T04:14:59;11.70;;;10.50;;
23888;SDS011;12125;40.102;18.326;2022-11-18T04:17:26;10.70;;;9.70;;
23888;SDS011;12125;40.102;18.326;2022-11-18T04:19:53;10.80;;;9.70;;
23888;SDS011;12125;40.102;18.326;2022-11-18T04:22:20;12.88;;;9.38;;
23888;SDS011;12125;40.102;18.326;2022-11-18T04:24:47;14.45;;;10.48;;
23888;SDS011;12125;40.102;18.326;2022-11-18T04:27:13;9.65;;;8.73;;
23888;SDS011;12125;40.102;18.326;2022-11-18T04:29:40;11.10;;;9.63;;
23888;SDS011;12125;40.102;18.326;2022-11-18T04:32:07;11.32;;;10.32;;
23888;SDS011;12125;40.102;18.326;2022-11-18T04:34:34;10.15;;;9.25;;
23888;SDS011;12125;40.102;18.326;2022-11-18T04:37:01;11.68;;;9.57;;
23888;SDS011;12125;40.102;18.326;2022-11-18T04:39:27;11.15;;;9.43;;
23888;SDS011;12125;40.102;18.326;2022-11-18T04:41:54;10.35;;;8.70;;
23888;SDS011;12125;40.102;18.326;2022-11-18T04:44:21;9.77;;;8.77;;
23888;SDS011;12125;40.102;18.326;2022-11-18T04:46:48;10.90;;;9.25;;
23888;SDS011;12125;40.102;18.326;2022-11-18T04:49:15;13.70;;;9.48;;
23888;SDS011;12125;40.102;18.326;2022-11-18T04:51:42;10.60;;;9.50;;
23888;SDS011;12125;40.102;18.326;2022-11-18T04:54:09;14.80;;;8.07;;
23888;SDS011;12125;40.102;18.326;2022-11-18T04:56:36;12.00;;;9.20;;
23888;SDS011;12125;40.102;18.326;2022-11-18T04:59:03;8.23;;;7.32;;
23888;SDS011;12125;40.102;18.326;2022-11-18T05:01:30;9.38;;;8.43;;
23888;SDS011;12125;40.102;18.326;2022-11-18T05:03:58;8.90;;;7.70;;
23888;SDS011;12125;40.102;18.326;2022-11-18T05:06:26;11.85;;;8.43;;
23888;SDS011;12125;40.102;18.326;2022-11-18T05:08:52;9.52;;;7.53;;
23888;SDS011;12125;40.102;18.326;2022-11-18T05:11:19;10.18;;;7.95;;
23888;SDS011;12125;40.102;18.326;2022-11-18T05:14:04;9.10;;;7.45;;
23888;SDS011;12125;40.102;18.326;2022-11-18T05:16:31;8.30;;;7.35;;
23888;SDS011;12125;40.102;18.326;2022-11-18T05:18:58;7.22;;;5.97;;
23888;SDS011;12125;40.102;18.326;2022-11-18T05:21:26;6.95;;;5.32;;
23888;SDS011;12125;40.102;18.326;2022-11-18T05:23:53;8.05;;;5.97;;
23888;SDS011;12125;40.102;18.326;2022-11-18T05:26:20;9.38;;;6.00;;
23888;SDS011;12125;40.102;18.326;2022-11-18T05:28:46;12.10;;;6.22;;
23888;SDS011;12125;40.102;18.326;2022-11-18T05:31:13;8.50;;;5.93;;
23888;SDS011;12125;40.102;18.326;2022-11-18T05:33:40;10.25;;;5.80;;
23888;SDS011;12125;40.102;18.326;2022-11-18T05:36:08;8.43;;;6.05;;
23888;SDS011;12125;40.102;18.326;2022-11-18T05:38:36;9.90;;;5.38;;
23888;SDS011;12125;40.102;18.326;2022-11-18T05:41:03;10.27;;;5.65;;
23888;SDS011;12125;40.102;18.326;2022-11-18T05:43:30;7.05;;;5.20;;
23888;SDS011;12125;40.102;18.326;2022-11-18T05:45:57;9.57;;;6.70;;
23888;SDS011;12125;40.102;18.326;2022-11-18T05:48:23;8.02;;;5.28;;
23888;SDS011;12125;40.102;18.326;2022-11-18T05:50:51;8.35;;;4.85;;
23888;SDS011;12125;40.102;18.326;2022-11-18T05:53:18;6.97;;;4.68;;
23888;SDS011;12125;40.102;18.326;2022-11-18T05:58:11;9.43;;;5.38;;
23888;SDS011;12125;40.102;18.326;2022-11-18T06:00:38;10.27;;;5.03;;
23888;SDS011;12125;40.102;18.326;2022-11-18T06:03:10;7.13;;;4.80;;
23888;SDS011;12125;40.102;18.326;2022-11-18T06:05:37;7.88;;;4.20;;
23888;SDS011;12125;40.102;18.326;2022-11-18T06:08:04;9.02;;;4.45;;
23888;SDS011;12125;40.102;18.326;2022-11-18T06:10:31;8.45;;;4.32;;
23888;SDS011;12125;40.102;18.326;2022-11-18T06:13:00;7.50;;;4.18;;
23888;SDS011;12125;40.102;18.326;2022-11-18T06:15:29;7.25;;;4.40;;
23888;SDS011;12125;40.102;18.326;2022-11-18T06:18:01;6.20;;;4.15;;
23888;SDS011;12125;40.102;18.326;2022-11-18T06:20:28;5.03;;;3.40;;
23888;SDS011;12125;40.102;18.326;2022-11-18T06:22:55;8.23;;;3.92;;
23888;SDS011;12125;40.102;18.326;2022-11-18T06:25:23;5.45;;;3.80;;
23888;SDS011;12125;40.102;18.326;2022-11-18T06:27:50;6.65;;;3.88;;
23888;SDS011;12125;40.102;18.326;2022-11-18T06:30:18;7.53;;;3.58;;
23888;SDS011;12125;40.102;18.326;2022-11-18T06:32:44;6.68;;;3.92;;
23888;SDS011;12125;40.102;18.326;2022-11-18T06:35:11;7.47;;;3.63;;
23888;SDS011;12125;40.102;18.326;2022-11-18T06:37:38;5.72;;;3.20;;
23888;SDS011;12125;40.102;18.326;2022-11-18T06:40:05;4.00;;;3.22;;
23888;SDS011;12125;40.102;18.326;2022-11-18T06:42:32;8.52;;;3.70;;
23888;SDS011;12125;40.102;18.326;2022-11-18T06:45:16;7.43;;;2.88;;
23888;SDS011;12125;40.102;18.326;2022-11-18T06:47:43;7.57;;;3.03;;
23888;SDS011;12125;40.102;18.326;2022-11-18T06:50:10;6.80;;;2.60;;
23888;SDS011;12125;40.102;18.326;2022-11-18T06:52:36;8.27;;;3.10;;
23888;SDS011;12125;40.102;18.326;2022-11-18T06:55:03;5.38;;;3.83;;
23888;SDS011;12125;40.102;18.326;2022-11-18T06:57:33;6.40;;;3.00;;
23888;SDS011;12125;40.102;18.326;2022-11-18T07:00:00;3.95;;;2.60;;
23888;SDS011;12125;40.102;18.326;2022-11-18T07:02:27;4.78;;;2.47;;
23888;SDS011;12125;40.102;18.326;2022-11-18T07:04:53;5.43;;;2.45;;
23888;SDS011;12125;40.102;18.326;2022-11-18T07:07:20;6.68;;;2.70;;
23888;SDS011;12125;40.102;18.326;2022-11-18T07:09:47;6.75;;;3.00;;
23888;SDS011;12125;40.102;18.326;2022-11-18T07:12:13;4.40;;;2.90;;
23888;SDS011;12125;40.102;18.326;2022-11-18T07:14:40;12.57;;;3.90;;
23888;SDS011;12125;40.102;18.326;2022-11-18T07:17:07;8.90;;;3.08;;
23888;SDS011;12125;40.102;18.326;2022-11-18T07:19:33;10.60;;;4.57;;
23888;SDS011;12125;40.102;18.326;2022-11-18T07:22:00;12.70;;;4.28;;
23888;SDS011;12125;40.102;18.326;2022-11-18T07:24:26;4.85;;;3.78;;
23888;SDS011;12125;40.102;18.326;2022-11-18T07:26:53;7.35;;;3.83;;
23888;SDS011;12125;40.102;18.326;2022-11-18T07:29:19;5.68;;;3.47;;
23888;SDS011;12125;40.102;18.326;2022-11-18T07:31:46;7.60;;;3.50;;
23888;SDS011;12125;40.102;18.326;2022-11-18T07:34:13;8.45;;;3.92;;
23888;SDS011;12125;40.102;18.326;2022-11-18T07:36:39;7.93;;;3.50;;
23888;SDS011;12125;40.102;18.326;2022-11-18T07:39:06;5.93;;;2.60;;
23888;SDS011;12125;40.102;18.326;2022-11-18T07:41:33;6.40;;;2.90;;
23888;SDS011;12125;40.102;18.326;2022-11-18T07:44:01;4.10;;;2.20;;
23888;SDS011;12125;40.102;18.326;2022-11-18T07:46:28;5.55;;;2.70;;
23888;SDS011;12125;40.102;18.326;2022-11-18T07:48:56;6.25;;;2.20;;
23888;SDS011;12125;40.102;18.326;2022-11-18T07:51:24;6.43;;;2.33;;
23888;SDS011;12125;40.102;18.326;2022-11-18T07:53:51;4.38;;;2.45;;
23888;SDS011;12125;40.102;18.326;2022-11-18T07:56:17;4.82;;;2.33;;
23888;SDS011;12125;40.102;18.326;2022-11-18T07:58:44;5.03;;;2.60;;
23888;SDS011;12125;40.102;18.326;2022-11-18T08:01:12;5.95;;;2.83;;
23888;SDS011;12125;40.102;18.326;2022-11-18T08:03:39;5.45;;;3.20;;
23888;SDS011;12125;40.102;18.326;2022-11-18T08:06:06;8.20;;;2.95;;
23888;SDS011;12125;40.102;18.326;2022-11-18T08:08:34;8.35;;;2.97;;
23888;SDS011;12125;40.102;18.326;2022-11-18T08:11:01;6.75;;;3.30;;
23888;SDS011;12125;40.102;18.326;2022-11-18T08:13:30;7.85;;;3.67;;
23888;SDS011;12125;40.102;18.326;2022-11-18T08:15:57;11.55;;;5.57;;
23888;SDS011;12125;40.102;18.326;2022-11-18T08:18:24;11.82;;;7.55;;
23888;SDS011;12125;40.102;18.326;2022-11-18T08:20:51;17.42;;;7.05;;
23888;SDS011;12125;40.102;18.326;2022-11-18T08:23:18;12.63;;;5.88;;
23888;SDS011;12125;40.102;18.326;2022-11-18T08:25:44;9.70;;;4.97;;
23888;SDS011;12125;40.102;18.326;2022-11-18T08:28:11;14.85;;;5.18;;
23888;SDS011;12125;40.102;18.326;2022-11-18T08:30:38;10.32;;;4.38;;
23888;SDS011;12125;40.102;18.326;2022-11-18T08:33:05;8.63;;;4.35;;
23888;SDS011;12125;40.102;18.326;2022-11-18T08:35:31;9.18;;;4.10;;
23888;SDS011;12125;40.102;18.326;2022-11-18T08:37:58;12.45;;;4.18;;
23888;SDS011;12125;40.102;18.326;2022-11-18T08:40:25;10.10;;;4.30;;
23888;SDS011;12125;40.102;18.326;2022-11-18T08:42:52;8.43;;;4.32;;
23888;SDS011;12125;40.102;18.326;2022-11-18T08:45:18;9.30;;;4.38;;
23888;SDS011;12125;40.102;18.326;2022-11-18T08:47:45;8.23;;;4.22;;
23888;SDS011;12125;40.102;18.326;2022-11-18T08:50:11;7.95;;;4.53;;
23888;SDS011;12125;40.102;18.326;2022-11-18T08:52:41;9.75;;;4.45;;
23888;SDS011;12125;40.102;18.326;2022-11-18T08:55:07;8.02;;;4.30;;
23888;SDS011;12125;40.102;18.326;2022-11-18T08:57:34;12.70;;;5.13;;
23888;SDS011;12125;40.102;18.326;2022-11-18T09:00:01;10.32;;;4.43;;
23888;SDS011;12125;40.102;18.326;2022-11-18T09:02:28;8.98;;;4.43;;
23888;SDS011;12125;40.102;18.326;2022-11-18T09:04:54;13.65;;;4.75;;
23888;SDS011;12125;40.102;18.326;2022-11-18T09:07:21;13.20;;;5.90;;
23888;SDS011;12125;40.102;18.326;2022-11-18T09:09:49;12.88;;;4.97;;
23888;SDS011;12125;40.102;18.326;2022-11-18T09:12:15;9.98;;;4.45;;
23888;SDS011;12125;40.102;18.326;2022-11-18T09:14:43;12.05;;;4.30;;
23888;SDS011;12125;40.102;18.326;2022-11-18T09:17:10;11.00;;;3.83;;
23888;SDS011;12125;40.102;18.326;2022-11-18T09:19:37;14.32;;;4.32;;
23888;SDS011;12125;40.102;18.326;2022-11-18T09:22:04;13.07;;;5.15;;
23888;SDS011;12125;40.102;18.326;2022-11-18T09:24:30;11.45;;;5.15;;
23888;SDS011;12125;40.102;18.326;2022-11-18T09:26:57;11.95;;;5.03;;
23888;SDS011;12125;40.102;18.326;2022-11-18T09:29:24;13.82;;;5.07;;
23888;SDS011;12125;40.102;18.326;2022-11-18T09:31:51;11.48;;;4.30;;
23888;SDS011;12125;40.102;18.326;2022-11-18T09:34:18;10.68;;;4.00;;
23888;SDS011;12125;40.102;18.326;2022-11-18T09:36:45;6.20;;;4.10;;
23888;SDS011;12125;40.102;18.326;2022-11-18T09:39:11;10.75;;;4.30;;
23888;SDS011;12125;40.102;18.326;2022-11-18T09:51:47;7.35;;;2.88;;
23888;SDS011;12125;40.102;18.326;2022-11-18T09:56:44;10.05;;;3.60;;
23888;SDS011;12125;40.102;18.326;2022-11-18T09:59:13;7.63;;;3.35;;
23888;SDS011;12125;40.102;18.326;2022-11-18T10:01:41;9.45;;;3.55;;
23888;SDS011;12125;40.102;18.326;2022-11-18T10:04:12;8.52;;;3.22;;
23888;SDS011;12125;40.102;18.326;2022-11-18T10:06:39;10.25;;;3.78;;
23888;SDS011;12125;40.102;18.326;2022-11-18T10:12:08;8.63;;;3.85;;
23888;SDS011;12125;40.102;18.326;2022-11-18T10:14:42;8.95;;;3.72;;
23888;SDS011;12125;40.102;18.326;2022-11-18T10:25:20;10.20;;;3.60;;
23888;SDS011;12125;40.102;18.326;2022-11-18T10:27:47;13.13;;;3.70;;
23888;SDS011;12125;40.102;18.326;2022-11-18T10:30:15;7.70;;;3.40;;
23888;SDS011;12125;40.102;18.326;2022-11-18T10:32:52;10.43;;;3.80;;
23888;SDS011;12125;40.102;18.326;2022-11-18T10:35:24;8.70;;;3.38;;
23888;SDS011;12125;40.102;18.326;2022-11-18T10:40:27;12.02;;;3.78;;
23888;SDS011;12125;40.102;18.326;2022-11-18T10:42:54;7.40;;;3.55;;
23888;SDS011;12125;40.102;18.326;2022-11-18T10:52:59;11.98;;;3.72;;
23888;SDS011;12125;40.102;18.326;2022-11-18T10:55:26;12.70;;;4.50;;
23888;SDS011;12125;40.102;18.326;2022-11-18T10:58:06;9.15;;;4.05;;
23888;SDS011;12125;40.102;18.326;2022-11-18T11:00:39;12.80;;;4.32;;
23888;SDS011;12125;40.102;18.326;2022-11-18T11:08:51;10.63;;;4.50;;
23888;SDS011;12125;40.102;18.326;2022-11-18T11:11:22;11.52;;;4.05;;
23888;SDS011;12125;40.102;18.326;2022-11-18T11:13:55;12.55;;;4.90;;
23888;SDS011;12125;40.102;18.326;2022-11-18T11:16:24;9.77;;;4.00;;
23888;SDS011;12125;40.102;18.326;2022-11-18T11:18:52;17.95;;;5.05;;
23888;SDS011;12125;40.102;18.326;2022-11-18T11:21:21;14.80;;;4.90;;
23888;SDS011;12125;40.102;18.326;2022-11-18T11:23:49;11.48;;;4.03;;
23888;SDS011;12125;40.102;18.326;2022-11-18T11:26:21;15.05;;;4.43;;
23888;SDS011;12125;40.102;18.326;2022-11-18T11:31:22;14.98;;;4.63;;
23888;SDS011;12125;40.102;18.326;2022-11-18T11:34:06;10.38;;;5.05;;
23888;SDS011;12125;40.102;18.326;2022-11-18T11:41:53;14.27;;;5.30;;
23888;SDS011;12125;40.102;18.326;2022-11-18T11:44:36;11.80;;;4.82;;
23888;SDS011;12125;40.102;18.326;2022-11-18T11:47:32;10.20;;;4.30;;
23888;SDS011;12125;40.102;18.326;2022-11-18T11:50:17;14.75;;;4.65;;
23888;SDS011;12125;40.102;18.326;2022-11-18T12:00:36;8.40;;;3.90;;
23888;SDS011;12125;40.102;18.326;2022-11-18T12:05:41;7.28;;;3.58;;
23888;SDS011;12125;40.102;18.326;2022-11-18T12:18:42;9.10;;;3.70;;
23888;SDS011;12125;40.102;18.326;2022-11-18T12:26:42;7.70;;;4.05;;
23888;SDS011;12125;40.102;18.326;2022-11-18T12:31:47;9.05;;;3.38;;
23888;SDS011;12125;40.102;18.326;2022-11-18T12:34:37;7.10;;;3.63;;
23888;SDS011;12125;40.102;18.326;2022-11-18T12:38:04;10.95;;;3.88;;
23888;SDS011;12125;40.102;18.326;2022-11-18T12:39:59;10.48;;;3.78;;
23888;SDS011;12125;40.102;18.326;2022-11-18T12:42:37;9.27;;;3.83;;
23888;SDS011;12125;40.102;18.326;2022-11-18T12:48:38;9.57;;;3.20;;
23888;SDS011;12125;40.102;18.326;2022-11-18T12:51:34;13.77;;;4.10;;
23888;SDS011;12125;40.102;18.326;2022-11-18T12:53:54;14.43;;;3.70;;
23888;SDS011;12125;40.102;18.326;2022-11-18T12:56:22;12.77;;;3.53;;
23888;SDS011;12125;40.102;18.326;2022-11-18T12:58:53;8.57;;;3.75;;
23888;SDS011;12125;40.102;18.326;2022-11-18T13:01:22;9.52;;;3.53;;
23888;SDS011;12125;40.102;18.326;2022-11-18T13:03:50;9.88;;;3.78;;
23888;SDS011;12125;40.102;18.326;2022-11-18T13:06:26;9.63;;;3.28;;
23888;SDS011;12125;40.102;18.326;2022-11-18T13:08:55;9.95;;;3.85;;
23888;SDS011;12125;40.102;18.326;2022-11-18T13:11:24;10.52;;;4.45;;
23888;SDS011;12125;40.102;18.326;2022-11-18T13:14:16;11.02;;;4.10;;
23888;SDS011;12125;40.102;18.326;2022-11-18T13:17:02;13.60;;;4.22;;
23888;SDS011;12125;40.102;18.326;2022-11-18T13:23:01;13.77;;;4.28;;
23888;SDS011;12125;40.102;18.326;2022-11-18T13:25:48;12.63;;;4.63;;
23888;SDS011;12125;40.102;18.326;2022-11-18T13:28:21;18.25;;;5.15;;
23888;SDS011;12125;40.102;18.326;2022-11-18T13:30:56;12.70;;;4.82;;
23888;SDS011;12125;40.102;18.326;2022-11-18T13:33:25;12.13;;;4.38;;
23888;SDS011;12125;40.102;18.326;2022-11-18T13:35:52;11.07;;;4.82;;
23888;SDS011;12125;40.102;18.326;2022-11-18T13:38:19;13.98;;;4.50;;
23888;SDS011;12125;40.102;18.326;2022-11-18T13:40:47;11.00;;;4.47;;
23888;SDS011;12125;40.102;18.326;2022-11-18T13:43:29;10.60;;;4.95;;
23888;SDS011;12125;40.102;18.326;2022-11-18T13:45:57;13.82;;;4.75;;
23888;SDS011;12125;40.102;18.326;2022-11-18T13:48:25;11.88;;;4.32;;
23888;SDS011;12125;40.102;18.326;2022-11-18T13:50:53;10.27;;;4.40;;
23888;SDS011;12125;40.102;18.326;2022-11-18T13:53:28;10.68;;;5.43;;
23888;SDS011;12125;40.102;18.326;2022-11-18T13:56:02;16.63;;;5.60;;
23888;SDS011;12125;40.102;18.326;2022-11-18T13:58:40;13.75;;;5.10;;
23888;SDS011;12125;40.102;18.326;2022-11-18T14:01:14;14.65;;;5.70;;
23888;SDS011;12125;40.102;18.326;2022-11-18T14:03:49;11.70;;;5.75;;
23888;SDS011;12125;40.102;18.326;2022-11-18T14:06:26;18.55;;;6.57;;
23888;SDS011;12125;40.102;18.326;2022-11-18T14:09:04;15.20;;;6.60;;
23888;SDS011;12125;40.102;18.326;2022-11-18T14:11:37;19.17;;;6.40;;
23888;SDS011;12125;40.102;18.326;2022-11-18T14:14:04;16.50;;;7.07;;
23888;SDS011;12125;40.102;18.326;2022-11-18T14:16:36;16.10;;;6.43;;
23888;SDS011;12125;40.102;18.326;2022-11-18T14:19:02;15.60;;;6.65;;
23888;SDS011;12125;40.102;18.326;2022-11-18T14:21:30;25.23;;;8.40;;
23888;SDS011;12125;40.102;18.326;2022-11-18T14:23:58;15.63;;;6.70;;
23888;SDS011;12125;40.102;18.326;2022-11-18T14:26:29;19.73;;;7.65;;
23888;SDS011;12125;40.102;18.326;2022-11-18T14:28:57;17.27;;;7.47;;
23888;SDS011;12125;40.102;18.326;2022-11-18T14:31:25;17.52;;;7.35;;
23888;SDS011;12125;40.102;18.326;2022-11-18T14:34:11;12.75;;;6.13;;
23888;SDS011;12125;40.102;18.326;2022-11-18T14:36:40;17.90;;;6.90;;
23888;SDS011;12125;40.102;18.326;2022-11-18T14:39:23;15.07;;;6.63;;
23888;SDS011;12125;40.102;18.326;2022-11-18T14:41:50;15.82;;;7.10;;
23888;SDS011;12125;40.102;18.326;2022-11-18T14:44:17;17.60;;;8.18;;
23888;SDS011;12125;40.102;18.326;2022-11-18T14:46:51;17.08;;;7.25;;
23888;SDS011;12125;40.102;18.326;2022-11-18T14:49:20;15.02;;;6.05;;
23888;SDS011;12125;40.102;18.326;2022-11-18T14:51:47;16.35;;;6.72;;
23888;SDS011;12125;40.102;18.326;2022-11-18T14:54:14;19.70;;;7.10;;
23888;SDS011;12125;40.102;18.326;2022-11-18T14:56:42;17.20;;;6.63;;
23888;SDS011;12125;40.102;18.326;2022-11-18T14:59:12;15.32;;;6.32;;
23888;SDS011;12125;40.102;18.326;2022-11-18T15:01:39;21.05;;;6.38;;
23888;SDS011;12125;40.102;18.326;2022-11-18T15:04:07;18.60;;;6.88;;
23888;SDS011;12125;40.102;18.326;2022-11-18T15:06:33;18.23;;;6.97;;
23888;SDS011;12125;40.102;18.326;2022-11-18T15:09:01;21.05;;;6.70;;
23888;SDS011;12125;40.102;18.326;2022-11-18T15:11:27;14.05;;;5.95;;
23888;SDS011;12125;40.102;18.326;2022-11-18T15:13:54;19.98;;;6.85;;
23888;SDS011;12125;40.102;18.326;2022-11-18T15:16:25;21.33;;;6.88;;
23888;SDS011;12125;40.102;18.326;2022-11-18T15:18:55;19.42;;;6.82;;
23888;SDS011;12125;40.102;18.326;2022-11-18T15:21:22;16.00;;;7.00;;
23888;SDS011;12125;40.102;18.326;2022-11-18T15:23:50;20.25;;;7.35;;
23888;SDS011;12125;40.102;18.326;2022-11-18T15:26:24;26.45;;;7.57;;
23888;SDS011;12125;40.102;18.326;2022-11-18T15:28:51;23.55;;;7.28;;
23888;SDS011;12125;40.102;18.326;2022-11-18T15:31:19;21.63;;;8.70;;
23888;SDS011;12125;40.102;18.326;2022-11-18T15:33:46;19.13;;;7.43;;
23888;SDS011;12125;40.102;18.326;2022-11-18T15:36:16;18.92;;;7.75;;
23888;SDS011;12125;40.102;18.326;2022-11-18T15:38:43;15.38;;;7.38;;
23888;SDS011;12125;40.102;18.326;2022-11-18T15:41:17;32.50;;;9.48;;
23888;SDS011;12125;40.102;18.326;2022-11-18T15:43:45;21.33;;;7.70;;
23888;SDS011;12125;40.102;18.326;2022-11-18T15:46:12;17.20;;;8.43;;
23888;SDS011;12125;40.102;18.326;2022-11-18T15:48:39;22.13;;;8.30;;
23888;SDS011;12125;40.102;18.326;2022-11-18T15:51:06;17.27;;;8.00;;
23888;SDS011;12125;40.102;18.326;2022-11-18T15:53:32;22.23;;;7.53;;
23888;SDS011;12125;40.102;18.326;2022-11-18T15:58:44;22.90;;;8.18;;
23888;SDS011;12125;40.102;18.326;2022-11-18T16:01:11;13.88;;;7.20;;
23888;SDS011;12125;40.102;18.326;2022-11-18T16:03:37;27.15;;;8.38;;
23888;SDS011;12125;40.102;18.326;2022-11-18T16:06:04;19.08;;;7.65;;
23888;SDS011;12125;40.102;18.326;2022-11-18T16:08:30;22.33;;;8.13;;
23888;SDS011;12125;40.102;18.326;2022-11-18T16:10:57;27.35;;;8.25;;
23888;SDS011;12125;40.102;18.326;2022-11-18T16:13:43;19.17;;;8.13;;
23888;SDS011;12125;40.102;18.326;2022-11-18T16:16:22;18.75;;;7.15;;
23888;SDS011;12125;40.102;18.326;2022-11-18T16:18:56;20.30;;;7.60;;
23888;SDS011;12125;40.102;18.326;2022-11-18T16:21:23;19.55;;;8.98;;
23888;SDS011;12125;40.102;18.326;2022-11-18T16:23:52;34.17;;;12.15;;
23888;SDS011;12125;40.102;18.326;2022-11-18T16:26:19;26.58;;;10.05;;
23888;SDS011;12125;40.102;18.326;2022-11-18T16:28:45;34.42;;;10.50;;
23888;SDS011;12125;40.102;18.326;2022-11-18T16:31:14;25.75;;;9.15;;